< < Back
Terminal Aerodrome Forecast


Current Version              Previous Versions:   1  2  3  4  5  6  7  8  9  

Terminal Aerodrome Forecast

459
FTUS44 KOHX 270500 AAB
TAFCSV
TAF AMD
KCSV 270516Z 2705/2724 04009KT 6SM -RA BR BKN008 OVC012
     FM270800 35010KT 1SM BR OVC007
     FM271400 36009KT 5SM BR OVC015
     FM271600 36009KT P6SM OVC025
     FM271800 33010G16KT P6SM OVC050=

Latest METAR

912
SAUS70 KWBC 270800 RRB
MTRCSV
METAR KCSV 270753Z AUTO 02007KT 10SM BKN008 OVC014 04/02 A2989 RMK AO2
CIG 004V011 SLP114 T00390022


USA.gov is the U.S. government's official web portal to all federal, state and local government web resources and services.